sensor_id;sensor_type;location;lat;lon;timestamp;P1;durP1;ratioP1;P2;durP2;ratioP2
30519;SDS011;17300;50.374;8.006;2023-06-01T00:00:52;1.70;;;1.43;;
30519;SDS011;17300;50.374;8.006;2023-06-01T00:03:21;1.47;;;1.37;;
30519;SDS011;17300;50.374;8.006;2023-06-01T00:05:49;3.37;;;1.60;;
30519;SDS011;17300;50.374;8.006;2023-06-01T00:08:16;1.50;;;1.33;;
30519;SDS011;17300;50.374;8.006;2023-06-01T00:10:43;1.60;;;1.50;;
30519;SDS011;17300;50.374;8.006;2023-06-01T00:13:09;2.10;;;1.60;;
30519;SDS011;17300;50.374;8.006;2023-06-01T00:15:36;1.50;;;1.40;;
30519;SDS011;17300;50.374;8.006;2023-06-01T00:18:03;1.50;;;1.40;;
30519;SDS011;17300;50.374;8.006;2023-06-01T00:20:30;1.83;;;1.40;;
30519;SDS011;17300;50.374;8.006;2023-06-01T00:22:58;1.80;;;1.40;;
30519;SDS011;17300;50.374;8.006;2023-06-01T00:25:25;1.60;;;1.50;;
30519;SDS011;17300;50.374;8.006;2023-06-01T00:27:52;2.07;;;1.70;;
30519;SDS011;17300;50.374;8.006;2023-06-01T00:30:18;1.87;;;1.47;;
30519;SDS011;17300;50.374;8.006;2023-06-01T00:32:45;1.63;;;1.50;;
30519;SDS011;17300;50.374;8.006;2023-06-01T00:35:11;1.40;;;1.30;;
30519;SDS011;17300;50.374;8.006;2023-06-01T00:37:38;2.70;;;1.57;;
30519;SDS011;17300;50.374;8.006;2023-06-01T00:40:06;1.57;;;1.47;;
30519;SDS011;17300;50.374;8.006;2023-06-01T00:42:34;1.50;;;1.40;;
30519;SDS011;17300;50.374;8.006;2023-06-01T00:45:00;1.40;;;1.30;;
30519;SDS011;17300;50.374;8.006;2023-06-01T00:47:27;1.40;;;1.30;;
30519;SDS011;17300;50.374;8.006;2023-06-01T00:49:54;1.63;;;1.50;;
30519;SDS011;17300;50.374;8.006;2023-06-01T00:52:20;1.47;;;1.37;;
30519;SDS011;17300;50.374;8.006;2023-06-01T00:54:49;1.30;;;1.20;;
30519;SDS011;17300;50.374;8.006;2023-06-01T00:57:17;1.50;;;1.30;;
30519;SDS011;17300;50.374;8.006;2023-06-01T00:59:46;2.27;;;1.60;;
30519;SDS011;17300;50.374;8.006;2023-06-01T01:02:13;1.80;;;1.57;;
30519;SDS011;17300;50.374;8.006;2023-06-01T01:04:40;2.00;;;1.40;;
30519;SDS011;17300;50.374;8.006;2023-06-01T01:07:09;1.40;;;1.23;;
30519;SDS011;17300;50.374;8.006;2023-06-01T01:09:49;1.80;;;1.57;;
30519;SDS011;17300;50.374;8.006;2023-06-01T01:12:26;1.67;;;1.33;;
30519;SDS011;17300;50.374;8.006;2023-06-01T01:14:59;1.87;;;1.40;;
30519;SDS011;17300;50.374;8.006;2023-06-01T01:17:35;1.80;;;1.23;;
30519;SDS011;17300;50.374;8.006;2023-06-01T01:20:06;1.50;;;1.40;;
30519;SDS011;17300;50.374;8.006;2023-06-01T01:22:42;2.27;;;1.60;;
30519;SDS011;17300;50.374;8.006;2023-06-01T01:25:25;1.57;;;1.47;;
30519;SDS011;17300;50.374;8.006;2023-06-01T01:28:23;1.70;;;1.60;;
30519;SDS011;17300;50.374;8.006;2023-06-01T01:30:57;1.83;;;1.30;;
30519;SDS011;17300;50.374;8.006;2023-06-01T01:33:26;1.73;;;1.53;;
30519;SDS011;17300;50.374;8.006;2023-06-01T01:35:53;1.70;;;1.60;;
30519;SDS011;17300;50.374;8.006;2023-06-01T01:38:20;1.67;;;1.27;;
30519;SDS011;17300;50.374;8.006;2023-06-01T01:40:47;1.40;;;1.30;;
30519;SDS011;17300;50.374;8.006;2023-06-01T01:43:14;1.10;;;1.10;;
30519;SDS011;17300;50.374;8.006;2023-06-01T01:45:42;1.30;;;1.17;;
30519;SDS011;17300;50.374;8.006;2023-06-01T01:48:15;1.60;;;1.50;;
30519;SDS011;17300;50.374;8.006;2023-06-01T01:50:56;1.67;;;1.37;;
30519;SDS011;17300;50.374;8.006;2023-06-01T01:53:28;1.30;;;1.20;;
30519;SDS011;17300;50.374;8.006;2023-06-01T01:55:56;1.47;;;1.33;;
30519;SDS011;17300;50.374;8.006;2023-06-01T01:58:24;1.90;;;1.47;;
30519;SDS011;17300;50.374;8.006;2023-06-01T02:00:53;1.43;;;1.33;;
30519;SDS011;17300;50.374;8.006;2023-06-01T02:03:21;1.70;;;1.60;;
30519;SDS011;17300;50.374;8.006;2023-06-01T02:05:48;1.40;;;1.30;;
30519;SDS011;17300;50.374;8.006;2023-06-01T02:08:15;1.93;;;1.37;;
30519;SDS011;17300;50.374;8.006;2023-06-01T02:10:42;2.43;;;1.60;;
30519;SDS011;17300;50.374;8.006;2023-06-01T02:13:09;3.07;;;1.40;;
30519;SDS011;17300;50.374;8.006;2023-06-01T02:15:35;1.30;;;1.20;;
30519;SDS011;17300;50.374;8.006;2023-06-01T02:18:03;1.67;;;1.40;;
30519;SDS011;17300;50.374;8.006;2023-06-01T02:20:30;2.57;;;1.30;;
30519;SDS011;17300;50.374;8.006;2023-06-01T02:22:57;1.53;;;1.40;;
30519;SDS011;17300;50.374;8.006;2023-06-01T02:25:23;1.87;;;1.33;;
30519;SDS011;17300;50.374;8.006;2023-06-01T02:27:50;1.50;;;1.40;;
30519;SDS011;17300;50.374;8.006;2023-06-01T02:30:17;1.27;;;1.10;;
30519;SDS011;17300;50.374;8.006;2023-06-01T02:32:43;1.23;;;1.13;;
30519;SDS011;17300;50.374;8.006;2023-06-01T02:35:14;1.60;;;1.50;;
30519;SDS011;17300;50.374;8.006;2023-06-01T02:37:41;1.40;;;1.30;;
30519;SDS011;17300;50.374;8.006;2023-06-01T02:40:08;1.30;;;1.20;;
30519;SDS011;17300;50.374;8.006;2023-06-01T02:42:36;1.50;;;1.40;;
30519;SDS011;17300;50.374;8.006;2023-06-01T02:45:03;1.50;;;1.40;;
30519;SDS011;17300;50.374;8.006;2023-06-01T02:47:30;1.77;;;1.33;;
30519;SDS011;17300;50.374;8.006;2023-06-01T02:49:57;1.60;;;1.50;;
30519;SDS011;17300;50.374;8.006;2023-06-01T02:52:25;1.67;;;1.50;;
30519;SDS011;17300;50.374;8.006;2023-06-01T02:54:52;1.40;;;1.27;;
30519;SDS011;17300;50.374;8.006;2023-06-01T02:57:19;3.17;;;1.17;;
30519;SDS011;17300;50.374;8.006;2023-06-01T02:59:45;1.20;;;1.13;;
30519;SDS011;17300;50.374;8.006;2023-06-01T03:02:12;2.20;;;1.37;;
30519;SDS011;17300;50.374;8.006;2023-06-01T03:04:39;1.50;;;1.40;;
30519;SDS011;17300;50.374;8.006;2023-06-01T03:07:05;1.30;;;1.20;;
30519;SDS011;17300;50.374;8.006;2023-06-01T03:09:33;1.30;;;1.20;;
30519;SDS011;17300;50.374;8.006;2023-06-01T03:12:00;1.43;;;1.33;;
30519;SDS011;17300;50.374;8.006;2023-06-01T03:14:27;1.50;;;1.40;;
30519;SDS011;17300;50.374;8.006;2023-06-01T03:16:53;1.23;;;1.13;;
30519;SDS011;17300;50.374;8.006;2023-06-01T03:19:20;1.47;;;1.37;;
30519;SDS011;17300;50.374;8.006;2023-06-01T03:21:47;1.70;;;1.43;;
30519;SDS011;17300;50.374;8.006;2023-06-01T03:24:14;1.50;;;1.40;;
30519;SDS011;17300;50.374;8.006;2023-06-01T03:26:43;2.23;;;1.50;;
30519;SDS011;17300;50.374;8.006;2023-06-01T03:29:10;1.53;;;1.43;;
30519;SDS011;17300;50.374;8.006;2023-06-01T03:31:37;2.27;;;1.50;;
30519;SDS011;17300;50.374;8.006;2023-06-01T03:34:03;2.13;;;1.47;;
30519;SDS011;17300;50.374;8.006;2023-06-01T03:36:30;1.70;;;1.60;;
30519;SDS011;17300;50.374;8.006;2023-06-01T03:38:57;2.30;;;1.60;;
30519;SDS011;17300;50.374;8.006;2023-06-01T03:41:24;1.50;;;1.40;;
30519;SDS011;17300;50.374;8.006;2023-06-01T03:43:52;1.43;;;1.33;;
30519;SDS011;17300;50.374;8.006;2023-06-01T03:46:19;1.50;;;1.40;;
30519;SDS011;17300;50.374;8.006;2023-06-01T03:48:46;1.40;;;1.30;;
30519;SDS011;17300;50.374;8.006;2023-06-01T03:51:12;1.43;;;1.33;;
30519;SDS011;17300;50.374;8.006;2023-06-01T03:53:39;1.80;;;1.60;;
30519;SDS011;17300;50.374;8.006;2023-06-01T03:56:06;2.20;;;1.50;;
30519;SDS011;17300;50.374;8.006;2023-06-01T03:58:33;1.70;;;1.60;;
30519;SDS011;17300;50.374;8.006;2023-06-01T04:01:01;1.50;;;1.40;;
30519;SDS011;17300;50.374;8.006;2023-06-01T04:03:28;1.83;;;1.57;;
30519;SDS011;17300;50.374;8.006;2023-06-01T04:05:55;1.50;;;1.40;;
30519;SDS011;17300;50.374;8.006;2023-06-01T04:08:24;1.50;;;1.40;;
30519;SDS011;17300;50.374;8.006;2023-06-01T04:10:51;1.50;;;1.40;;
30519;SDS011;17300;50.374;8.006;2023-06-01T04:13:18;1.53;;;1.23;;
30519;SDS011;17300;50.374;8.006;2023-06-01T04:15:45;1.57;;;1.40;;
30519;SDS011;17300;50.374;8.006;2023-06-01T04:18:13;2.27;;;1.50;;
30519;SDS011;17300;50.374;8.006;2023-06-01T04:20:40;1.93;;;1.57;;
30519;SDS011;17300;50.374;8.006;2023-06-01T04:23:06;1.57;;;1.33;;
30519;SDS011;17300;50.374;8.006;2023-06-01T04:25:33;1.90;;;1.40;;
30519;SDS011;17300;50.374;8.006;2023-06-01T04:28:00;1.57;;;1.47;;
30519;SDS011;17300;50.374;8.006;2023-06-01T04:30:26;1.60;;;1.50;;
30519;SDS011;17300;50.374;8.006;2023-06-01T04:32:53;1.60;;;1.50;;
30519;SDS011;17300;50.374;8.006;2023-06-01T04:35:21;1.47;;;1.30;;
30519;SDS011;17300;50.374;8.006;2023-06-01T04:37:48;2.37;;;1.43;;
30519;SDS011;17300;50.374;8.006;2023-06-01T04:40:15;1.60;;;1.50;;
30519;SDS011;17300;50.374;8.006;2023-06-01T04:42:42;2.07;;;1.50;;
30519;SDS011;17300;50.374;8.006;2023-06-01T04:45:14;1.67;;;1.33;;
30519;SDS011;17300;50.374;8.006;2023-06-01T04:47:41;2.30;;;1.60;;
30519;SDS011;17300;50.374;8.006;2023-06-01T04:50:10;2.07;;;1.60;;
30519;SDS011;17300;50.374;8.006;2023-06-01T04:52:39;2.00;;;1.50;;
30519;SDS011;17300;50.374;8.006;2023-06-01T04:55:06;1.53;;;1.43;;
30519;SDS011;17300;50.374;8.006;2023-06-01T04:57:34;1.67;;;1.53;;
30519;SDS011;17300;50.374;8.006;2023-06-01T05:00:04;2.07;;;1.80;;
30519;SDS011;17300;50.374;8.006;2023-06-01T05:02:34;2.33;;;1.50;;
30519;SDS011;17300;50.374;8.006;2023-06-01T05:05:00;1.83;;;1.67;;
30519;SDS011;17300;50.374;8.006;2023-06-01T05:07:27;2.03;;;1.80;;
30519;SDS011;17300;50.374;8.006;2023-06-01T05:09:55;1.77;;;1.67;;
30519;SDS011;17300;50.374;8.006;2023-06-01T05:12:22;1.60;;;1.50;;
30519;SDS011;17300;50.374;8.006;2023-06-01T05:14:49;2.00;;;1.80;;
30519;SDS011;17300;50.374;8.006;2023-06-01T05:17:15;1.73;;;1.47;;
30519;SDS011;17300;50.374;8.006;2023-06-01T05:19:42;1.87;;;1.60;;
30519;SDS011;17300;50.374;8.006;2023-06-01T05:22:09;1.53;;;1.43;;
30519;SDS011;17300;50.374;8.006;2023-06-01T05:24:36;1.50;;;1.40;;
30519;SDS011;17300;50.374;8.006;2023-06-01T05:27:05;2.00;;;1.50;;
30519;SDS011;17300;50.374;8.006;2023-06-01T05:29:32;2.17;;;1.60;;
30519;SDS011;17300;50.374;8.006;2023-06-01T05:31:58;2.40;;;1.47;;
30519;SDS011;17300;50.374;8.006;2023-06-01T05:34:25;1.90;;;1.70;;
30519;SDS011;17300;50.374;8.006;2023-06-01T05:36:52;2.03;;;1.70;;
30519;SDS011;17300;50.374;8.006;2023-06-01T05:39:18;2.70;;;2.33;;
30519;SDS011;17300;50.374;8.006;2023-06-01T05:41:45;2.17;;;1.77;;
30519;SDS011;17300;50.374;8.006;2023-06-01T05:44:13;2.47;;;1.60;;
30519;SDS011;17300;50.374;8.006;2023-06-01T05:46:40;1.75;;;1.65;;
30519;SDS011;17300;50.374;8.006;2023-06-01T05:49:06;1.52;;;1.42;;
30519;SDS011;17300;50.374;8.006;2023-06-01T05:51:33;1.90;;;1.67;;
30519;SDS011;17300;50.374;8.006;2023-06-01T05:54:02;1.85;;;1.48;;
30519;SDS011;17300;50.374;8.006;2023-06-01T05:56:29;2.75;;;1.45;;
30519;SDS011;17300;50.374;8.006;2023-06-01T05:58:56;1.75;;;1.33;;
30519;SDS011;17300;50.374;8.006;2023-06-01T06:01:25;2.08;;;1.52;;
30519;SDS011;17300;50.374;8.006;2023-06-01T06:03:53;1.85;;;1.45;;
30519;SDS011;17300;50.374;8.006;2023-06-01T06:06:20;2.20;;;1.70;;
30519;SDS011;17300;50.374;8.006;2023-06-01T06:08:47;1.70;;;1.60;;
30519;SDS011;17300;50.374;8.006;2023-06-01T06:11:14;1.65;;;1.55;;
30519;SDS011;17300;50.374;8.006;2023-06-01T06:13:40;1.95;;;1.50;;
30519;SDS011;17300;50.374;8.006;2023-06-01T06:16:07;2.30;;;1.90;;
30519;SDS011;17300;50.374;8.006;2023-06-01T06:18:35;1.60;;;1.50;;
30519;SDS011;17300;50.374;8.006;2023-06-01T06:21:02;1.50;;;1.40;;
30519;SDS011;17300;50.374;8.006;2023-06-01T06:23:29;1.92;;;1.67;;
30519;SDS011;17300;50.374;8.006;2023-06-01T06:25:57;2.95;;;1.50;;
30519;SDS011;17300;50.374;8.006;2023-06-01T06:28:24;1.60;;;1.40;;
30519;SDS011;17300;50.374;8.006;2023-06-01T06:30:51;2.13;;;1.60;;
30519;SDS011;17300;50.374;8.006;2023-06-01T06:33:18;2.08;;;1.58;;
30519;SDS011;17300;50.374;8.006;2023-06-01T06:35:46;1.75;;;1.23;;
30519;SDS011;17300;50.374;8.006;2023-06-01T06:38:13;1.40;;;1.30;;
30519;SDS011;17300;50.374;8.006;2023-06-01T06:40:41;1.70;;;1.42;;
30519;SDS011;17300;50.374;8.006;2023-06-01T06:43:08;2.17;;;1.60;;
30519;SDS011;17300;50.374;8.006;2023-06-01T06:45:35;1.80;;;1.50;;
30519;SDS011;17300;50.374;8.006;2023-06-01T06:48:01;1.73;;;1.40;;
30519;SDS011;17300;50.374;8.006;2023-06-01T06:50:28;1.67;;;1.45;;
30519;SDS011;17300;50.374;8.006;2023-06-01T06:52:56;2.10;;;1.20;;
30519;SDS011;17300;50.374;8.006;2023-06-01T06:55:24;1.98;;;1.50;;
30519;SDS011;17300;50.374;8.006;2023-06-01T06:57:51;1.40;;;1.10;;
30519;SDS011;17300;50.374;8.006;2023-06-01T07:00:19;1.63;;;1.30;;
30519;SDS011;17300;50.374;8.006;2023-06-01T07:02:46;1.50;;;1.10;;
30519;SDS011;17300;50.374;8.006;2023-06-01T07:05:13;1.88;;;1.33;;
30519;SDS011;17300;50.374;8.006;2023-06-01T07:07:40;1.75;;;1.40;;
30519;SDS011;17300;50.374;8.006;2023-06-01T07:10:08;1.60;;;1.50;;
30519;SDS011;17300;50.374;8.006;2023-06-01T07:12:35;2.00;;;1.38;;
30519;SDS011;17300;50.374;8.006;2023-06-01T07:15:02;2.80;;;1.50;;
30519;SDS011;17300;50.374;8.006;2023-06-01T07:17:31;2.25;;;1.70;;
30519;SDS011;17300;50.374;8.006;2023-06-01T07:19:57;1.27;;;1.17;;
30519;SDS011;17300;50.374;8.006;2023-06-01T07:22:25;1.40;;;1.23;;
30519;SDS011;17300;50.374;8.006;2023-06-01T07:24:52;1.30;;;1.20;;
30519;SDS011;17300;50.374;8.006;2023-06-01T07:27:21;1.40;;;1.30;;
30519;SDS011;17300;50.374;8.006;2023-06-01T07:29:48;1.60;;;1.20;;
30519;SDS011;17300;50.374;8.006;2023-06-01T07:32:19;1.48;;;1.27;;
30519;SDS011;17300;50.374;8.006;2023-06-01T07:34:46;1.55;;;1.30;;
30519;SDS011;17300;50.374;8.006;2023-06-01T07:37:13;1.70;;;1.40;;
30519;SDS011;17300;50.374;8.006;2023-06-01T07:39:40;2.03;;;1.20;;
30519;SDS011;17300;50.374;8.006;2023-06-01T07:42:07;1.17;;;1.05;;
30519;SDS011;17300;50.374;8.006;2023-06-01T07:44:35;1.40;;;1.30;;
30519;SDS011;17300;50.374;8.006;2023-06-01T07:47:01;1.90;;;1.30;;
30519;SDS011;17300;50.374;8.006;2023-06-01T07:49:28;1.45;;;1.35;;
30519;SDS011;17300;50.374;8.006;2023-06-01T07:51:55;1.63;;;1.33;;
30519;SDS011;17300;50.374;8.006;2023-06-01T07:54:23;1.95;;;1.30;;
30519;SDS011;17300;50.374;8.006;2023-06-01T07:56:50;1.65;;;1.20;;
30519;SDS011;17300;50.374;8.006;2023-06-01T07:59:17;1.52;;;1.20;;
30519;SDS011;17300;50.374;8.006;2023-06-01T08:01:48;1.35;;;1.25;;
30519;SDS011;17300;50.374;8.006;2023-06-01T08:04:15;1.23;;;1.13;;
30519;SDS011;17300;50.374;8.006;2023-06-01T08:06:41;2.05;;;1.58;;
30519;SDS011;17300;50.374;8.006;2023-06-01T08:09:08;2.40;;;1.70;;
30519;SDS011;17300;50.374;8.006;2023-06-01T08:11:35;1.85;;;1.40;;
30519;SDS011;17300;50.374;8.006;2023-06-01T08:14:02;1.55;;;1.45;;
30519;SDS011;17300;50.374;8.006;2023-06-01T08:16:32;1.77;;;1.50;;
30519;SDS011;17300;50.374;8.006;2023-06-01T08:19:01;2.17;;;1.10;;
30519;SDS011;17300;50.374;8.006;2023-06-01T08:21:28;1.40;;;1.30;;
30519;SDS011;17300;50.374;8.006;2023-06-01T08:23:54;1.77;;;1.17;;
30519;SDS011;17300;50.374;8.006;2023-06-01T08:26:21;2.05;;;1.35;;
30519;SDS011;17300;50.374;8.006;2023-06-01T08:28:48;2.17;;;1.60;;
30519;SDS011;17300;50.374;8.006;2023-06-01T08:31:19;3.05;;;1.35;;
30519;SDS011;17300;50.374;8.006;2023-06-01T08:33:46;2.22;;;1.40;;
30519;SDS011;17300;50.374;8.006;2023-06-01T08:36:15;1.30;;;1.20;;
30519;SDS011;17300;50.374;8.006;2023-06-01T08:38:42;1.80;;;1.30;;
30519;SDS011;17300;50.374;8.006;2023-06-01T08:41:10;2.03;;;1.48;;
30519;SDS011;17300;50.374;8.006;2023-06-01T08:43:43;1.63;;;1.30;;
30519;SDS011;17300;50.374;8.006;2023-06-01T08:46:11;1.95;;;1.35;;
30519;SDS011;17300;50.374;8.006;2023-06-01T08:48:40;1.40;;;1.30;;
30519;SDS011;17300;50.374;8.006;2023-06-01T08:51:08;2.33;;;1.67;;
30519;SDS011;17300;50.374;8.006;2023-06-01T08:53:37;2.10;;;1.50;;
30519;SDS011;17300;50.374;8.006;2023-06-01T08:56:07;2.10;;;1.70;;
30519;SDS011;17300;50.374;8.006;2023-06-01T08:58:34;1.40;;;1.30;;
30519;SDS011;17300;50.374;8.006;2023-06-01T09:01:02;2.45;;;1.25;;
30519;SDS011;17300;50.374;8.006;2023-06-01T09:03:29;1.83;;;1.40;;
30519;SDS011;17300;50.374;8.006;2023-06-01T09:05:55;4.25;;;1.45;;
30519;SDS011;17300;50.374;8.006;2023-06-01T09:08:22;1.50;;;1.40;;
30519;SDS011;17300;50.374;8.006;2023-06-01T09:10:51;1.92;;;1.42;;
30519;SDS011;17300;50.374;8.006;2023-06-01T09:13:30;2.28;;;1.50;;
30519;SDS011;17300;50.374;8.006;2023-06-01T09:15:57;2.35;;;1.40;;
30519;SDS011;17300;50.374;8.006;2023-06-01T09:18:24;3.55;;;1.45;;
30519;SDS011;17300;50.374;8.006;2023-06-01T09:20:50;1.38;;;1.27;;
30519;SDS011;17300;50.374;8.006;2023-06-01T09:23:22;1.73;;;1.60;;
30519;SDS011;17300;50.374;8.006;2023-06-01T09:26:04;2.13;;;1.48;;
30519;SDS011;17300;50.374;8.006;2023-06-01T09:28:43;2.70;;;1.52;;
30519;SDS011;17300;50.374;8.006;2023-06-01T09:31:34;2.55;;;1.50;;
30519;SDS011;17300;50.374;8.006;2023-06-01T09:34:05;1.60;;;1.50;;
30519;SDS011;17300;50.374;8.006;2023-06-01T09:36:33;1.58;;;1.48;;
30519;SDS011;17300;50.374;8.006;2023-06-01T09:39:01;2.22;;;1.63;;
30519;SDS011;17300;50.374;8.006;2023-06-01T09:44:13;2.20;;;1.50;;
30519;SDS011;17300;50.374;8.006;2023-06-01T09:46:47;1.73;;;1.48;;
30519;SDS011;17300;50.374;8.006;2023-06-01T09:49:18;3.03;;;2.00;;
30519;SDS011;17300;50.374;8.006;2023-06-01T09:51:46;3.65;;;1.85;;
30519;SDS011;17300;50.374;8.006;2023-06-01T09:54:23;1.50;;;1.40;;
30519;SDS011;17300;50.374;8.006;2023-06-01T09:56:52;1.83;;;1.65;;
30519;SDS011;17300;50.374;8.006;2023-06-01T09:59:20;2.08;;;1.17;;
30519;SDS011;17300;50.374;8.006;2023-06-01T10:01:49;1.60;;;1.50;;
30519;SDS011;17300;50.374;8.006;2023-06-01T10:04:19;2.97;;;1.70;;
30519;SDS011;17300;50.374;8.006;2023-06-01T10:06:47;1.65;;;1.55;;
30519;SDS011;17300;50.374;8.006;2023-06-01T10:09:16;1.77;;;1.52;;
30519;SDS011;17300;50.374;8.006;2023-06-01T10:11:45;1.60;;;1.30;;
30519;SDS011;17300;50.374;8.006;2023-06-01T10:14:13;1.48;;;1.38;;
30519;SDS011;17300;50.374;8.006;2023-06-01T10:16:40;2.63;;;1.65;;
30519;SDS011;17300;50.374;8.006;2023-06-01T10:19:07;1.50;;;1.40;;
30519;SDS011;17300;50.374;8.006;2023-06-01T10:21:35;1.65;;;1.50;;
30519;SDS011;17300;50.374;8.006;2023-06-01T10:24:01;1.50;;;1.40;;
30519;SDS011;17300;50.374;8.006;2023-06-01T10:26:30;1.58;;;1.30;;
30519;SDS011;17300;50.374;8.006;2023-06-01T10:29:01;1.67;;;1.30;;
30519;SDS011;17300;50.374;8.006;2023-06-01T10:31:33;1.50;;;1.40;;
30519;SDS011;17300;50.374;8.006;2023-06-01T10:34:01;3.00;;;1.67;;
30519;SDS011;17300;50.374;8.006;2023-06-01T10:39:31;3.25;;;1.70;;
30519;SDS011;17300;50.374;8.006;2023-06-01T10:42:34;2.50;;;1.45;;
30519;SDS011;17300;50.374;8.006;2023-06-01T10:45:03;2.08;;;1.60;;
30519;SDS011;17300;50.374;8.006;2023-06-01T10:47:47;1.45;;;1.35;;
30519;SDS011;17300;50.374;8.006;2023-06-01T10:50:15;1.95;;;1.42;;
30519;SDS011;17300;50.374;8.006;2023-06-01T10:52:43;3.40;;;1.58;;
30519;SDS011;17300;50.374;8.006;2023-06-01T10:55:20;3.00;;;1.40;;
30519;SDS011;17300;50.374;8.006;2023-06-01T10:57:49;2.38;;;1.30;;
30519;SDS011;17300;50.374;8.006;2023-06-01T11:00:17;1.33;;;1.23;;
30519;SDS011;17300;50.374;8.006;2023-06-01T11:02:47;1.60;;;1.50;;
30519;SDS011;17300;50.374;8.006;2023-06-01T11:08:05;2.03;;;1.45;;
30519;SDS011;17300;50.374;8.006;2023-06-01T11:13:23;1.67;;;1.58;;
30519;SDS011;17300;50.374;8.006;2023-06-01T11:18:55;1.35;;;1.25;;
30519;SDS011;17300;50.374;8.006;2023-06-01T11:21:27;1.67;;;1.58;;
30519;SDS011;17300;50.374;8.006;2023-06-01T11:23:56;2.47;;;1.67;;
30519;SDS011;17300;50.374;8.006;2023-06-01T11:26:24;1.60;;;1.50;;
30519;SDS011;17300;50.374;8.006;2023-06-01T11:29:02;1.10;;;1.10;;
30519;SDS011;17300;50.374;8.006;2023-06-01T11:31:34;1.55;;;1.45;;
30519;SDS011;17300;50.374;8.006;2023-06-01T11:34:03;2.10;;;1.38;;
30519;SDS011;17300;50.374;8.006;2023-06-01T11:36:35;1.92;;;1.80;;
30519;SDS011;17300;50.374;8.006;2023-06-01T11:39:15;2.55;;;1.60;;
30519;SDS011;17300;50.374;8.006;2023-06-01T11:41:45;1.98;;;1.70;;
30519;SDS011;17300;50.374;8.006;2023-06-01T11:44:12;2.05;;;1.60;;
30519;SDS011;17300;50.374;8.006;2023-06-01T11:46:49;2.17;;;1.48;;
30519;SDS011;17300;50.374;8.006;2023-06-01T11:49:21;2.50;;;1.52;;
30519;SDS011;17300;50.374;8.006;2023-06-01T11:51:48;3.58;;;1.60;;
30519;SDS011;17300;50.374;8.006;2023-06-01T11:54:20;1.52;;;1.42;;
30519;SDS011;17300;50.374;8.006;2023-06-01T11:56:48;1.50;;;1.40;;
30519;SDS011;17300;50.374;8.006;2023-06-01T11:59:16;1.85;;;1.40;;
30519;SDS011;17300;50.374;8.006;2023-06-01T12:01:44;1.70;;;1.58;;
30519;SDS011;17300;50.374;8.006;2023-06-01T12:04:12;1.80;;;1.70;;
30519;SDS011;17300;50.374;8.006;2023-06-01T12:06:40;1.60;;;1.50;;
30519;SDS011;17300;50.374;8.006;2023-06-01T12:09:08;1.90;;;1.70;;
30519;SDS011;17300;50.374;8.006;2023-06-01T12:11:35;1.73;;;1.60;;
30519;SDS011;17300;50.374;8.006;2023-06-01T12:14:02;1.98;;;1.77;;
30519;SDS011;17300;50.374;8.006;2023-06-01T12:19:24;1.77;;;1.67;;
30519;SDS011;17300;50.374;8.006;2023-06-01T12:21:53;2.33;;;1.50;;
30519;SDS011;17300;50.374;8.006;2023-06-01T12:24:27;1.92;;;1.55;;
30519;SDS011;17300;50.374;8.006;2023-06-01T12:26:56;2.10;;;1.80;;
30519;SDS011;17300;50.374;8.006;2023-06-01T12:29:36;3.58;;;1.70;;
30519;SDS011;17300;50.374;8.006;2023-06-01T12:32:04;4.32;;;1.70;;
30519;SDS011;17300;50.374;8.006;2023-06-01T12:34:32;2.42;;;1.60;;
30519;SDS011;17300;50.374;8.006;2023-06-01T12:37:09;2.70;;;1.73;;
30519;SDS011;17300;50.374;8.006;2023-06-01T12:39:37;2.28;;;1.50;;
30519;SDS011;17300;50.374;8.006;2023-06-01T12:42:06;1.63;;;1.52;;
30519;SDS011;17300;50.374;8.006;2023-06-01T12:44:33;2.33;;;1.90;;
30519;SDS011;17300;50.374;8.006;2023-06-01T12:47:00;5.25;;;2.30;;
30519;SDS011;17300;50.374;8.006;2023-06-01T12:49:28;2.22;;;2.05;;
30519;SDS011;17300;50.374;8.006;2023-06-01T12:51:55;3.00;;;2.28;;
30519;SDS011;17300;50.374;8.006;2023-06-01T12:54:23;3.08;;;1.80;;
30519;SDS011;17300;50.374;8.006;2023-06-01T12:56:50;1.88;;;1.65;;
30519;SDS011;17300;50.374;8.006;2023-06-01T12:59:17;2.85;;;2.28;;
30519;SDS011;17300;50.374;8.006;2023-06-01T13:01:44;3.00;;;2.42;;
30519;SDS011;17300;50.374;8.006;2023-06-01T13:04:11;3.17;;;2.88;;
30519;SDS011;17300;50.374;8.006;2023-06-01T13:06:37;3.35;;;2.70;;
30519;SDS011;17300;50.374;8.006;2023-06-01T13:09:04;3.97;;;2.92;;
30519;SDS011;17300;50.374;8.006;2023-06-01T13:11:33;3.83;;;3.10;;
30519;SDS011;17300;50.374;8.006;2023-06-01T13:14:00;4.07;;;3.67;;
30519;SDS011;17300;50.374;8.006;2023-06-01T13:16:27;8.50;;;4.38;;
30519;SDS011;17300;50.374;8.006;2023-06-01T13:18:54;4.38;;;3.90;;
30519;SDS011;17300;50.374;8.006;2023-06-01T13:21:22;5.15;;;4.63;;
30519;SDS011;17300;50.374;8.006;2023-06-01T13:23:49;4.80;;;4.40;;
30519;SDS011;17300;50.374;8.006;2023-06-01T13:26:15;5.18;;;4.25;;
30519;SDS011;17300;50.374;8.006;2023-06-01T13:28:43;5.15;;;4.75;;
30519;SDS011;17300;50.374;8.006;2023-06-01T13:31:10;5.78;;;4.85;;
30519;SDS011;17300;50.374;8.006;2023-06-01T13:33:37;10.13;;;5.00;;
30519;SDS011;17300;50.374;8.006;2023-06-01T13:36:04;5.07;;;4.57;;
30519;SDS011;17300;50.374;8.006;2023-06-01T13:38:31;5.25;;;4.68;;
30519;SDS011;17300;50.374;8.006;2023-06-01T13:40:58;5.32;;;4.82;;
30519;SDS011;17300;50.374;8.006;2023-06-01T13:43:24;6.28;;;5.00;;
30519;SDS011;17300;50.374;8.006;2023-06-01T13:45:52;5.32;;;4.75;;
30519;SDS011;17300;50.374;8.006;2023-06-01T13:48:19;5.25;;;4.82;;
30519;SDS011;17300;50.374;8.006;2023-06-01T13:50:46;5.20;;;4.78;;
30519;SDS011;17300;50.374;8.006;2023-06-01T13:53:13;4.78;;;4.38;;
30519;SDS011;17300;50.374;8.006;2023-06-01T13:55:39;4.88;;;4.47;;
30519;SDS011;17300;50.374;8.006;2023-06-01T13:58:06;5.00;;;4.57;;
30519;SDS011;17300;50.374;8.006;2023-06-01T14:00:33;5.40;;;4.90;;
30519;SDS011;17300;50.374;8.006;2023-06-01T14:03:01;4.90;;;4.50;;
30519;SDS011;17300;50.374;8.006;2023-06-01T14:05:28;4.53;;;4.13;;
30519;SDS011;17300;50.374;8.006;2023-06-01T14:07:54;4.85;;;4.45;;
30519;SDS011;17300;50.374;8.006;2023-06-01T14:10:21;5.18;;;4.55;;
30519;SDS011;17300;50.374;8.006;2023-06-01T14:12:48;5.22;;;4.72;;
30519;SDS011;17300;50.374;8.006;2023-06-01T14:15:15;5.18;;;4.78;;
30519;SDS011;17300;50.374;8.006;2023-06-01T14:17:41;4.03;;;3.72;;
30519;SDS011;17300;50.374;8.006;2023-06-01T14:20:10;4.22;;;3.78;;
30519;SDS011;17300;50.374;8.006;2023-06-01T14:22:36;4.40;;;4.10;;
30519;SDS011;17300;50.374;8.006;2023-06-01T14:25:03;7.03;;;4.35;;
30519;SDS011;17300;50.374;8.006;2023-06-01T14:27:31;5.13;;;4.63;;
30519;SDS011;17300;50.374;8.006;2023-06-01T14:29:57;4.25;;;3.92;;
30519;SDS011;17300;50.374;8.006;2023-06-01T14:32:25;5.05;;;4.65;;
30519;SDS011;17300;50.374;8.006;2023-06-01T14:34:52;5.43;;;4.85;;
30519;SDS011;17300;50.374;8.006;2023-06-01T14:37:20;6.60;;;4.75;;
30519;SDS011;17300;50.374;8.006;2023-06-01T14:39:47;5.35;;;4.32;;
30519;SDS011;17300;50.374;8.006;2023-06-01T14:42:14;7.63;;;5.35;;
30519;SDS011;17300;50.374;8.006;2023-06-01T14:44:41;5.72;;;4.90;;
30519;SDS011;17300;50.374;8.006;2023-06-01T14:47:08;5.43;;;4.93;;
30519;SDS011;17300;50.374;8.006;2023-06-01T14:49:36;5.60;;;5.10;;
30519;SDS011;17300;50.374;8.006;2023-06-01T14:52:03;5.20;;;4.70;;
30519;SDS011;17300;50.374;8.006;2023-06-01T14:54:31;5.40;;;4.90;;
30519;SDS011;17300;50.374;8.006;2023-06-01T14:56:57;5.25;;;4.75;;
30519;SDS011;17300;50.374;8.006;2023-06-01T14:59:25;4.75;;;4.35;;
30519;SDS011;17300;50.374;8.006;2023-06-01T15:01:52;5.10;;;4.68;;
30519;SDS011;17300;50.374;8.006;2023-06-01T15:04:19;5.93;;;5.25;;
30519;SDS011;17300;50.374;8.006;2023-06-01T15:06:45;5.57;;;5.07;;
30519;SDS011;17300;50.374;8.006;2023-06-01T15:09:12;5.15;;;4.75;;
30519;SDS011;17300;50.374;8.006;2023-06-01T15:11:40;5.40;;;4.90;;